Time;durP1;ratioP1;P1;durP2;ratioP2;P2;SDS_P1;SDS_P2;PMS_P1;PMS_P2;Temp;Humidity;BMP_temperature;BMP_pressure;BME280_temperature;BME280_humidity;BME280_pressure;Samples;Min_cycle;Max_cycle;Signal;HPM_P1;HPM_P2
2021/09/11 00:01:21;;;;;;;11.18;6.45;;;;;;;21.91;64.43;101399.13;4971554;28;114144;-67
2021/09/11 00:03:49;;;;;;;10.00;7.18;;;;;;;21.93;64.56;101401.69;4972159;28;114067;-68
2021/09/11 00:06:16;;;;;;;9.93;6.53;;;;;;;21.93;64.38;101405.25;4973408;28;124861;-68
2021/09/11 00:08:44;;;;;;;9.57;6.68;;;;;;;21.96;64.41;101413.09;4972610;28;122849;-68
2021/09/11 00:11:11;;;;;;;9.63;6.95;;;;;;;21.97;64.42;101413.94;4973803;28;113299;-71
2021/09/11 00:13:38;;;;;;;10.10;7.00;;;;;;;21.96;64.20;101407.69;4974222;28;113376;-71
2021/09/11 00:16:05;;;;;;;10.93;7.20;;;;;;;21.97;64.38;101414.78;4972451;28;124118;-71
2021/09/11 00:18:33;;;;;;;11.18;7.68;;;;;;;21.96;64.22;101407.69;4973538;28;123895;-72
2021/09/11 00:21:00;;;;;;;10.77;7.63;;;;;;;21.96;64.12;101413.09;4977350;28;115637;-71
2021/09/11 00:23:27;;;;;;;10.73;7.95;;;;;;;21.96;64.43;101402.31;4972155;28;115229;-72
2021/09/11 00:25:56;;;;;;;11.27;7.90;;;;;;;21.95;64.28;101411.38;4973154;28;124105;-71
2021/09/11 00:28:23;;;;;;;10.73;8.00;;;;;;;21.95;64.35;101400.56;4958335;28;123751;-71
2021/09/11 00:30:50;;;;;;;12.23;8.02;;;;;;;21.94;64.38;101404.28;4961789;28;114230;-71
2021/09/11 00:33:18;;;;;;;13.60;8.70;;;;;;;21.95;64.22;101405.97;4974704;28;113988;-72
2021/09/11 00:35:46;;;;;;;12.07;8.52;;;;;;;21.96;64.44;101402.31;4966888;28;124711;-72
2021/09/11 00:38:13;;;;;;;12.45;9.75;;;;;;;21.95;64.44;101400.56;4954625;28;124830;-68
2021/09/11 00:40:40;;;;;;;13.65;9.07;;;;;;;21.96;64.44;101402.31;4968579;28;114325;-68
2021/09/11 00:43:07;;;;;;;14.35;9.63;;;;;;;21.96;64.50;101399.59;4964579;28;113847;-67
2021/09/11 00:45:34;;;;;;;14.02;9.43;;;;;;;21.96;64.44;101402.31;4972989;28;123922;-68
2021/09/11 00:48:01;;;;;;;14.13;9.05;;;;;;;21.95;64.37;101405.97;4962672;28;124306;-68
2021/09/11 00:50:29;;;;;;;13.60;9.50;;;;;;;21.93;64.38;101401.69;4966586;28;116225;-68
2021/09/11 00:52:56;;;;;;;12.80;9.05;;;;;;;21.91;64.19;101404.53;4973348;28;113463;-68
2021/09/11 00:55:23;;;;;;;13.43;9.63;;;;;;;21.89;64.24;101406.50;4972053;28;123861;-68
2021/09/11 00:57:51;;;;;;;14.05;9.82;;;;;;;21.85;64.22;101405.03;4961915;28;123695;-68
2021/09/11 01:00:18;;;;;;;15.98;10.18;;;;;;;21.85;64.28;101415.84;4967075;28;114447;-68
2021/09/11 01:02:45;;;;;;;14.73;9.52;;;;;;;21.81;64.14;101408.97;4955728;28;114081;-67
2021/09/11 01:05:14;;;;;;;12.57;9.30;;;;;;;21.80;64.16;101412.66;4954495;28;124200;-67
2021/09/11 01:07:44;;;;;;;14.52;9.40;;;;;;;21.78;64.00;101415.47;4975482;28;124006;-68
2021/09/11 01:10:11;;;;;;;15.27;10.27;;;;;;;21.76;63.98;101416.59;4971647;28;114448;-67
2021/09/11 01:12:39;;;;;;;16.00;10.07;;;;;;;21.72;63.86;101409.75;4969992;28;115628;-67
2021/09/11 01:15:09;;;;;;;13.18;9.55;;;;;;;21.67;64.09;101409.28;4969782;28;124113;-67
2021/09/11 01:17:39;;;;;;;16.58;9.93;;;;;;;21.64;64.00;101413.06;4968691;28;124281;-67
2021/09/11 01:20:07;;;;;;;16.95;10.88;;;;;;;21.61;64.01;101409.78;4971966;28;114687;-67
2021/09/11 01:22:35;;;;;;;14.70;9.82;;;;;;;21.58;64.02;101419.81;4966464;28;114713;-67
2021/09/11 01:25:05;;;;;;;13.73;9.90;;;;;;;21.54;64.05;101412.97;4971089;28;123835;-67
2021/09/11 01:27:33;;;;;;;17.65;11.05;;;;;;;21.52;64.17;101414.94;4967738;28;123777;-67
2021/09/11 01:30:07;;;;;;;16.85;11.18;;;;;;;21.47;63.97;101411.75;4955608;28;113317;-67
2021/09/11 01:32:34;;;;;;;16.88;10.60;;;;;;;21.42;64.16;101422.06;4963655;28;114095;-68
2021/09/11 01:35:03;;;;;;;15.95;10.80;;;;;;;21.39;64.10;101424.97;4957479;28;124785;-67
2021/09/11 01:37:30;;;;;;;16.42;11.38;;;;;;;21.36;64.23;101430.59;4972301;28;124694;-67
2021/09/11 01:39:57;;;;;;;17.25;10.77;;;;;;;21.32;64.20;101429.16;4971471;28;113853;-68
2021/09/11 01:42:27;;;;;;;17.15;10.45;;;;;;;21.30;64.25;101425.72;4970454;28;113924;-67
2021/09/11 01:44:57;;;;;;;17.33;10.73;;;;;;;21.28;64.22;101422.31;4971619;28;124767;-67
2021/09/11 01:47:24;;;;;;;16.67;10.43;;;;;;;21.25;64.16;101422.53;4963657;28;124672;-67
2021/09/11 01:49:53;;;;;;;15.90;10.63;;;;;;;21.21;64.25;101427.34;4969619;28;114345;-67
2021/09/11 01:52:21;;;;;;;18.98;10.65;;;;;;;21.18;64.24;101425.75;4970178;28;114242;-67
2021/09/11 01:54:48;;;;;;;16.80;10.85;;;;;;;21.15;64.06;101417.94;4970448;28;124989;-67
2021/09/11 01:57:16;;;;;;;17.52;10.50;;;;;;;21.12;64.10;101425.41;4971211;28;123789;-67
2021/09/11 01:59:43;;;;;;;17.63;10.45;;;;;;;21.08;64.32;101426.59;4967921;28;115016;-68
2021/09/11 02:02:10;;;;;;;15.25;10.00;;;;;;;21.06;64.05;101429.44;4972918;28;114842;-67
2021/09/11 02:04:38;;;;;;;15.95;10.30;;;;;;;21.03;64.03;101429.66;4970961;28;124862;-67
2021/09/11 02:07:07;;;;;;;15.07;10.18;;;;;;;21.00;63.90;101435.28;4970395;28;124188;-67
2021/09/11 02:09:35;;;;;;;16.80;9.80;;;;;;;20.97;64.01;101441.78;4958393;28;114666;-67
2021/09/11 02:12:03;;;;;;;17.05;9.90;;;;;;;20.92;63.95;101432.38;4968846;28;113842;-67
2021/09/11 02:14:30;;;;;;;16.42;9.00;;;;;;;20.89;63.93;101432.59;4971823;28;123916;-68
2021/09/11 02:16:57;;;;;;;14.70;9.40;;;;;;;20.85;64.03;101436.53;4970136;28;124643;-67
2021/09/11 02:19:24;;;;;;;15.27;9.27;;;;;;;20.80;64.04;101435.06;4967605;28;113263;-67
2021/09/11 02:21:52;;;;;;;15.02;9.13;;;;;;;20.78;64.00;101431.63;4971314;28;96845;-67
2021/09/11 02:24:19;;;;;;;14.27;9.65;;;;;;;20.73;64.00;101436.50;4969401;28;123882;-67
2021/09/11 02:26:47;;;;;;;13.23;9.07;;;;;;;20.70;64.16;101434.06;4972061;28;124769;-67
2021/09/11 02:29:15;;;;;;;14.82;8.90;;;;;;;20.66;63.96;101443.34;4966503;28;114643;-67
2021/09/11 02:31:42;;;;;;;17.95;8.73;;;;;;;20.64;64.05;101429.16;4969475;28;113838;-68
2021/09/11 02:34:10;;;;;;;15.73;8.88;;;;;;;20.62;64.11;101441.88;4969552;28;124082;-67
2021/09/11 02:36:37;;;;;;;16.20;9.52;;;;;;;20.58;64.11;101441.22;4970750;28;123954;-67
2021/09/11 02:39:04;;;;;;;15.15;9.45;;;;;;;20.55;63.94;101440.59;4968616;28;114894;-67
2021/09/11 02:41:32;;;;;;;16.08;9.43;;;;;;;20.53;64.00;101442.56;4980599;28;113181;-67
2021/09/11 02:44:02;;;;;;;16.13;10.02;;;;;;;20.50;64.05;101440.13;4965948;28;123159;-67
2021/09/11 02:46:30;;;;;;;15.00;9.85;;;;;;;20.48;64.17;101444.78;4971557;28;124163;-67
2021/09/11 02:49:00;;;;;;;17.08;9.52;;;;;;;20.47;64.13;101448.41;4967885;28;115072;-67
2021/09/11 02:51:27;;;;;;;17.08;9.80;;;;;;;20.42;64.25;101436.19;4971010;28;115226;-67
2021/09/11 02:53:55;;;;;;;18.70;10.13;;;;;;;20.39;64.18;101439.09;4970797;28;124078;-67
2021/09/11 02:56:22;;;;;;;18.50;10.38;;;;;;;20.37;64.10;101443.75;4971356;28;123805;-67
2021/09/11 02:58:50;;;;;;;16.60;9.88;;;;;;;20.34;64.20;101444.00;4966246;28;114170;-67
2021/09/11 03:01:17;;;;;;;16.45;10.27;;;;;;;20.31;64.36;101438.84;4969827;28;113877;-67
2021/09/11 03:03:44;;;;;;;16.75;10.65;;;;;;;20.29;64.28;101446.19;4969261;28;124021;-67
2021/09/11 03:06:12;;;;;;;16.67;10.00;;;;;;;20.26;64.36;101443.72;4971153;28;124367;-67
2021/09/11 03:08:39;;;;;;;17.25;10.05;;;;;;;20.23;64.34;101441.28;4968646;28;115111;-67
2021/09/11 03:11:06;;;;;;;18.88;10.02;;;;;;;20.21;64.34;101437.81;4972266;28;114328;-67
2021/09/11 03:13:33;;;;;;;18.45;9.50;;;;;;;20.20;64.34;101436.13;4965224;28;123891;-67
2021/09/11 03:16:00;;;;;;;14.95;9.13;;;;;;;20.18;64.37;101444.31;4965710;28;123936;-67
2021/09/11 03:18:27;;;;;;;18.02;10.02;;;;;;;20.16;64.53;101446.25;4968458;28;114280;-67
2021/09/11 03:20:54;;;;;;;14.52;9.52;;;;;;;20.15;64.52;101427.53;4971198;28;113864;-67
2021/09/11 03:23:22;;;;;;;15.68;9.20;;;;;;;20.13;64.43;101434.88;4968069;28;124666;-67
2021/09/11 03:25:49;;;;;;;17.80;8.55;;;;;;;20.10;64.49;101435.09;4971148;28;124530;-67
2021/09/11 03:28:16;;;;;;;14.80;8.90;;;;;;;20.08;64.35;101437.91;4970283;28;114276;-67
2021/09/11 03:30:43;;;;;;;13.00;8.23;;;;;;;20.07;64.38;101440.72;4967009;28;114541;-67
2021/09/11 03:33:10;;;;;;;13.68;7.97;;;;;;;20.08;64.45;101437.03;4966500;28;124081;-67
2021/09/11 03:35:38;;;;;;;14.82;7.50;;;;;;;20.03;64.25;101435.56;4971684;28;124013;-67
2021/09/11 03:38:05;;;;;;;12.82;7.63;;;;;;;20.02;64.31;101433.88;4964527;28;114293;-67
2021/09/11 03:40:32;;;;;;;13.05;7.93;;;;;;;20.01;64.32;101437.50;4973904;28;114897;-67
2021/09/11 03:42:59;;;;;;;13.45;7.50;;;;;;;19.98;64.45;101432.34;4972744;28;124104;-68
2021/09/11 03:45:26;;;;;;;12.73;7.22;;;;;;;19.96;64.55;101439.69;4972533;28;123896;-67
2021/09/11 03:47:55;;;;;;;13.73;8.05;;;;;;;19.95;64.49;101440.66;4973852;28;114607;-67
2021/09/11 03:50:22;;;;;;;12.55;7.25;;;;;;;19.93;64.24;101445.31;4972301;28;113773;-67
2021/09/11 03:52:49;;;;;;;13.10;7.07;;;;;;;19.92;64.39;101451.66;4969515;28;123922;-67
2021/09/11 03:55:17;;;;;;;12.23;7.18;;;;;;;19.91;64.28;101452.63;4972810;28;123612;-67
2021/09/11 03:57:44;;;;;;;12.23;7.47;;;;;;;19.88;64.33;101452.84;4971921;28;114594;-67
2021/09/11 04:00:12;;;;;;;12.55;7.18;;;;;;;19.89;64.34;101457.28;4973194;28;112861;-67
2021/09/11 04:02:39;;;;;;;13.80;7.22;;;;;;;19.87;64.24;101455.66;4971262;28;124297;-67
2021/09/11 04:05:07;;;;;;;12.45;6.88;;;;;;;19.86;64.28;101449.41;4973780;28;123830;-67
2021/09/11 04:07:34;;;;;;;14.30;7.20;;;;;;;19.84;64.23;101451.38;4971498;28;114568;-67
2021/09/11 04:10:02;;;;;;;14.48;6.75;;;;;;;19.82;64.39;101453.31;4971156;28;114567;-67
2021/09/11 04:12:29;;;;;;;13.82;6.82;;;;;;;19.81;64.37;101462.34;4972921;28;123798;-67
2021/09/11 04:14:56;;;;;;;12.73;6.93;;;;;;;19.79;64.44;101469.66;4972922;28;123704;-67
2021/09/11 04:17:23;;;;;;;11.00;6.93;;;;;;;19.77;64.39;101460.84;4973854;28;114254;-67
2021/09/11 04:19:51;;;;;;;12.23;7.10;;;;;;;19.76;64.41;101456.44;4973183;28;113927;-67
2021/09/11 04:22:18;;;;;;;13.55;6.80;;;;;;;19.74;64.50;101455.69;4986520;22;124668;-66
2021/09/11 04:24:45;;;;;;;12.07;6.97;;;;;;;19.72;64.48;101457.59;4968053;28;122739;-67
2021/09/11 04:27:12;;;;;;;11.35;7.03;;;;;;;19.70;64.30;101460.41;4971799;28;115972;-68
2021/09/11 04:29:39;;;;;;;11.23;6.55;;;;;;;19.70;64.30;101462.25;4973192;28;113797;-68
2021/09/11 04:32:06;;;;;;;11.80;6.50;;;;;;;19.68;64.43;101467.72;4971670;28;124215;-68
2021/09/11 04:34:33;;;;;;;12.15;6.38;;;;;;;19.67;64.57;101468.72;4974459;28;123623;-68
2021/09/11 04:37:00;;;;;;;12.13;6.63;;;;;;;19.67;64.52;101459.81;4972465;28;114599;-68
2021/09/11 04:39:27;;;;;;;14.35;6.72;;;;;;;19.68;64.66;101466.88;4971397;28;114682;-68
2021/09/11 04:41:54;;;;;;;9.23;5.97;;;;;;;19.67;64.57;101459.81;4973216;28;124777;-67
2021/09/11 04:44:22;;;;;;;11.10;6.50;;;;;;;19.67;64.72;101460.66;4972979;28;123910;-67
2021/09/11 04:46:49;;;;;;;10.90;6.05;;;;;;;19.67;64.73;101471.41;4974349;28;114285;-67
2021/09/11 04:49:16;;;;;;;10.25;6.20;;;;;;;19.68;64.79;101477.63;4970957;28;114496;-67
2021/09/11 04:51:43;;;;;;;13.90;6.57;;;;;;;19.68;64.73;101465.03;4971294;28;123918;-66
2021/09/11 04:54:10;;;;;;;9.35;6.30;;;;;;;19.70;64.81;101475.69;4972682;28;123783;-67
2021/09/11 04:56:37;;;;;;;9.07;5.55;;;;;;;19.71;64.70;101466.66;4973983;28;113930;-66
2021/09/11 04:59:04;;;;;;;9.13;5.75;;;;;;;19.71;64.82;101482.78;4973045;28;113572;-67
2021/09/11 05:01:31;;;;;;;9.25;5.57;;;;;;;19.70;64.97;101481.06;4973373;28;124327;-68
2021/09/11 05:03:59;;;;;;;10.35;5.55;;;;;;;19.71;64.98;101488.16;4969084;22;124124;-73
2021/09/11 05:06:26;;;;;;;10.45;5.85;;;;;;;19.72;64.75;101484.50;4966690;28;115681;-73
2021/09/11 05:08:53;;;;;;;9.57;5.68;;;;;;;19.73;65.02;101481.72;4960861;28;114184;-73
2021/09/11 05:11:20;;;;;;;12.77;5.43;;;;;;;19.75;64.98;101476.25;4942395;28;124262;-73
2021/09/11 05:13:47;;;;;;;8.80;5.18;;;;;;;19.76;65.02;101480.63;4951550;28;123861;-73
2021/09/11 05:16:14;;;;;;;8.27;5.10;;;;;;;19.77;64.91;101477.84;4951537;28;115962;-73
2021/09/11 05:18:41;;;;;;;8.68;5.18;;;;;;;19.77;64.94;101471.59;4952106;28;115191;-73
2021/09/11 05:21:08;;;;;;;10.55;5.75;;;;;;;19.79;64.88;101475.03;4935903;28;124244;-73
2021/09/11 05:23:35;;;;;;;7.45;5.20;;;;;;;19.80;64.84;101468.72;4952073;28;123830;-73
2021/09/11 05:26:04;;;;;;;8.80;5.22;;;;;;;19.80;64.92;101472.25;4950290;28;114058;-73
2021/09/11 05:28:31;;;;;;;8.18;5.28;;;;;;;19.81;65.04;101473.09;4938257;28;114212;-73
2021/09/11 05:30:58;;;;;;;9.35;4.78;;;;;;;19.81;65.01;101473.94;4952576;28;123812;-73
2021/09/11 05:33:26;;;;;;;10.73;5.32;;;;;;;19.82;64.99;101477.50;4964850;28;123012;-73
2021/09/11 05:35:53;;;;;;;8.10;4.80;;;;;;;19.82;64.96;101475.66;4949010;28;113035;-73
2021/09/11 05:38:20;;;;;;;9.30;5.43;;;;;;;19.82;64.92;101475.66;4935160;28;112748;-73
2021/09/11 05:40:47;;;;;;;8.93;5.03;;;;;;;19.84;65.00;101478.25;4951393;28;124071;-73
2021/09/11 05:43:15;;;;;;;9.07;4.93;;;;;;;19.83;64.85;101480.09;4951021;28;123869;-73
2021/09/11 05:45:42;;;;;;;10.70;5.05;;;;;;;19.82;64.99;101490.94;4951324;28;114069;-73
2021/09/11 05:48:10;;;;;;;7.85;4.70;;;;;;;19.82;64.96;101496.31;4951736;28;113032;-73
2021/09/11 05:50:37;;;;;;;9.88;5.35;;;;;;;19.82;64.90;101493.63;4951978;28;124256;-73
2021/09/11 05:53:04;;;;;;;13.23;5.47;;;;;;;19.82;64.83;101504.41;4952708;28;123323;-73
2021/09/11 05:55:31;;;;;;;8.10;5.18;;;;;;;19.83;64.97;101498.03;4952645;28;114006;-73
2021/09/11 05:57:58;;;;;;;8.98;5.28;;;;;;;19.85;65.10;101501.47;4953234;28;114339;-74
2021/09/11 06:00:25;;;;;;;12.55;5.53;;;;;;;19.87;65.01;101499.50;4942368;28;121981;-74
2021/09/11 06:02:52;;;;;;;9.27;5.45;;;;;;;19.88;64.89;101509.31;4951733;28;123658;-74
2021/09/11 06:05:20;;;;;;;11.70;5.47;;;;;;;19.90;64.97;101503.81;4952138;28;115814;-74
2021/09/11 06:07:47;;;;;;;9.85;5.35;;;;;;;19.91;64.96;101500.16;4958572;28;112892;-75
2021/09/11 06:10:15;;;;;;;9.05;5.40;;;;;;;19.92;64.90;101510.78;4955080;28;124917;-75
2021/09/11 06:12:42;;;;;;;10.77;5.07;;;;;;;19.95;64.89;101513.25;4963092;28;123248;-74
2021/09/11 06:15:13;;;;;;;10.57;5.05;;;;;;;19.97;64.88;101522.06;4955083;28;113634;-76
2021/09/11 06:17:40;;;;;;;9.10;5.10;;;;;;;19.98;64.79;101521.09;4962902;28;114087;-75
2021/09/11 06:20:09;;;;;;;10.80;5.45;;;;;;;19.97;64.95;101519.38;4953842;28;125239;-74
2021/09/11 06:22:36;;;;;;;9.20;5.60;;;;;;;19.99;64.91;101522.81;4955259;28;123646;-74
2021/09/11 06:25:04;;;;;;;10.23;5.60;;;;;;;20.01;65.10;101523.56;4959595;28;114136;-76
2021/09/11 06:27:31;;;;;;;10.38;5.70;;;;;;;20.03;64.95;101518.91;4958413;28;113426;-74
2021/09/11 06:29:58;;;;;;;9.48;5.25;;;;;;;20.05;64.89;101523.34;4937058;28;123291;-75
2021/09/11 06:32:25;;;;;;;10.73;5.75;;;;;;;20.08;64.98;101520.41;4953237;28;124268;-74
2021/09/11 06:34:53;;;;;;;10.60;5.45;;;;;;;20.11;65.35;101517.50;4955980;28;115183;-74
2021/09/11 06:37:20;;;;;;;8.50;5.72;;;;;;;20.16;65.21;101528.78;4955477;28;113719;-74
2021/09/11 06:39:47;;;;;;;10.95;5.57;;;;;;;20.21;65.34;101519.41;4951065;28;124187;-74
2021/09/11 06:42:15;;;;;;;8.02;5.40;;;;;;;20.29;65.30;101521.50;4946686;28;123635;-74
2021/09/11 06:44:42;;;;;;;9.52;5.35;;;;;;;20.38;65.59;101515.44;4949291;28;113671;-71
2021/09/11 06:47:10;;;;;;;11.05;6.05;;;;;;;20.52;65.79;101522.44;4954524;28;114158;-74
2021/09/11 06:49:37;;;;;;;12.30;5.97;;;;;;;20.68;65.84;101516.78;4955721;28;123648;-72
2021/09/11 06:52:04;;;;;;;10.25;5.45;;;;;;;20.82;65.71;101509.47;4955900;28;124597;-73
2021/09/11 06:54:32;;;;;;;9.30;5.65;;;;;;;20.93;65.57;101523.81;4952324;28;116011;-73
2021/09/11 06:56:59;;;;;;;8.52;5.15;;;;;;;21.03;65.33;101523.09;4959031;28;115528;-75
2021/09/11 06:59:26;;;;;;;8.82;4.78;;;;;;;21.09;65.24;101530.69;4958832;28;124687;-74
2021/09/11 07:01:53;;;;;;;7.53;4.80;;;;;;;21.11;64.93;101529.56;4955208;28;122733;-74
2021/09/11 07:04:20;;;;;;;9.18;5.25;;;;;;;21.14;64.78;101534.72;4951606;28;114571;-71
2021/09/11 07:06:47;;;;;;;8.85;4.93;;;;;;;21.14;64.60;101534.72;4948492;28;114144;-73
2021/09/11 07:09:15;;;;;;;7.05;4.75;;;;;;;21.15;64.59;101531.06;4950402;28;123709;-72
2021/09/11 07:11:42;;;;;;;9.55;5.10;;;;;;;21.16;64.61;101532.75;4957445;28;124618;-71
2021/09/11 07:14:09;;;;;;;7.22;4.80;;;;;;;21.17;64.53;101547.97;4957785;28;114288;-74
2021/09/11 07:16:36;;;;;;;7.13;4.60;;;;;;;21.19;64.50;101543.31;4966268;28;113515;-72
2021/09/11 07:19:03;;;;;;;8.82;5.10;;;;;;;21.22;64.54;101552.13;4962717;28;124098;-73
2021/09/11 07:21:30;;;;;;;11.10;4.93;;;;;;;21.27;64.62;101552.63;4958801;28;124677;-73
2021/09/11 07:23:57;;;;;;;10.35;5.03;;;;;;;21.32;64.91;101553.09;4958792;28;114418;-72
2021/09/11 07:26:24;;;;;;;7.55;4.78;;;;;;;21.41;64.79;101556.91;4955341;28;114284;-72
2021/09/11 07:28:51;;;;;;;8.60;4.90;;;;;;;21.47;64.76;101557.28;4956349;28;124734;-72
2021/09/11 07:31:19;;;;;;;9.18;4.80;;;;;;;21.52;64.54;101560.50;4950762;28;124577;-72
2021/09/11 07:33:46;;;;;;;7.63;5.10;;;;;;;21.55;64.37;101560.25;4960162;28;114869;-72
2021/09/11 07:36:13;;;;;;;8.43;4.60;;;;;;;21.56;64.18;101556.56;4958339;28;114247;-74
2021/09/11 07:38:40;;;;;;;7.00;4.95;;;;;;;21.58;64.30;101560.00;4957451;28;124439;-74
2021/09/11 07:41:07;;;;;;;8.65;4.70;;;;;;;21.60;64.03;101556.31;4968265;28;123464;-73
2021/09/11 07:43:35;;;;;;;10.13;5.15;;;;;;;21.62;64.21;101565.16;4939524;28;115726;-73
2021/09/11 07:46:02;;;;;;;7.40;4.68;;;;;;;21.65;64.00;101564.91;4954057;28;114148;-73
2021/09/11 07:48:29;;;;;;;11.48;5.20;;;;;;;21.67;63.98;101562.94;4952561;28;124773;-71
2021/09/11 07:51:00;;;;;;;9.82;5.25;;;;;;;21.70;63.97;101568.06;4945395;28;124036;-73
2021/09/11 07:53:27;;;;;;;6.90;5.03;;;;;;;21.71;63.82;101559.88;4970018;28;114202;-75
2021/09/11 07:55:55;;;;;;;8.23;5.30;;;;;;;21.74;63.72;101558.78;4952533;28;114350;-72
2021/09/11 07:58:22;;;;;;;8.95;5.65;;;;;;;21.80;63.86;101558.28;4955471;28;124756;-72
2021/09/11 08:00:49;;;;;;;10.57;5.85;;;;;;;21.89;64.13;101562.91;4956116;28;123729;-70
2021/09/11 08:03:16;;;;;;;8.48;5.18;;;;;;;22.04;64.38;101559.94;4949605;28;114560;-71
2021/09/11 08:05:43;;;;;;;11.20;6.15;;;;;;;22.18;64.32;101559.66;4947419;28;113704;-72
2021/09/11 08:08:10;;;;;;;10.55;6.35;;;;;;;22.28;63.99;101568.75;4949937;28;124124;-72
2021/09/11 08:10:37;;;;;;;9.52;6.22;;;;;;;22.39;63.81;101564.28;4953987;28;122850;-71
2021/09/11 08:13:04;;;;;;;9.73;6.70;;;;;;;22.48;63.60;101566.22;4951887;28;113704;-72
2021/09/11 08:15:32;;;;;;;9.18;5.93;;;;;;;22.56;63.45;101566.41;4953832;28;113398;-71
2021/09/11 08:18:01;;;;;;;12.73;6.82;;;;;;;22.64;63.36;101569.34;4969071;28;124829;-71
2021/09/11 08:20:32;;;;;;;11.02;6.10;;;;;;;22.71;63.21;101567.81;4948971;28;124453;-71
2021/09/11 08:23:04;;;;;;;9.48;5.88;;;;;;;22.79;62.89;101571.69;4967596;28;114111;-72
2021/09/11 08:25:32;;;;;;;8.18;5.35;;;;;;;22.84;62.61;101580.28;4933161;28;112166;-71
2021/09/11 08:27:59;;;;;;;8.73;5.75;;;;;;;22.90;62.51;101577.03;4944576;28;124391;-71
2021/09/11 08:30:26;;;;;;;9.77;6.13;;;;;;;22.96;62.56;101579.22;4967428;28;123184;-71
2021/09/11 08:32:53;;;;;;;9.35;6.40;;;;;;;23.04;62.47;101576.75;4952592;28;113923;-71
2021/09/11 08:35:20;;;;;;;10.85;6.25;;;;;;;23.10;61.93;101576.22;4949489;28;114655;-71
2021/09/11 08:37:47;;;;;;;10.23;6.07;;;;;;;23.14;61.84;101576.81;4951630;28;123990;-71
2021/09/11 08:40:14;;;;;;;10.13;6.32;;;;;;;23.18;61.95;101588.22;4951870;28;124353;-71
2021/09/11 08:42:42;;;;;;;10.18;6.70;;;;;;;23.24;61.78;101583.13;4953124;28;114039;-71
2021/09/11 08:45:14;;;;;;;10.30;6.10;;;;;;;23.32;61.90;101590.59;4968874;28;114311;-72
2021/09/11 08:47:45;;;;;;;10.90;6.53;;;;;;;23.40;61.87;101590.75;4952553;28;123478;-71
2021/09/11 08:50:13;;;;;;;12.25;7.10;;;;;;;23.43;61.37;101598.59;4953514;28;123151;-73
2021/09/11 08:52:45;;;;;;;11.40;6.57;;;;;;;23.46;60.87;101598.31;4951694;28;113857;-73
2021/09/11 08:55:15;;;;;;;10.55;6.65;;;;;;;23.46;60.85;101603.72;4949124;28;113762;-71
2021/09/11 08:58:18;;;;;;;11.93;7.22;;;;;;;23.42;60.63;101602.28;4953913;28;123843;-72
2021/09/11 09:00:53;;;;;;;10.18;6.47;;;;;;;23.40;60.50;101598.88;4936863;28;123938;-71
2021/09/11 09:03:41;;;;;;;11.05;6.75;;;;;;;23.36;60.50;101605.53;4953015;28;114318;-71
2021/09/11 09:06:16;;;;;;;9.32;6.00;;;;;;;23.35;60.31;101605.66;4943640;28;113686;-71
2021/09/11 09:08:45;;;;;;;9.30;6.25;;;;;;;23.33;60.51;101608.50;4948690;28;124275;-72
2021/09/11 09:11:17;;;;;;;11.32;6.18;;;;;;;23.36;60.55;101605.53;4943758;28;123137;-74
2021/09/11 09:14:00;;;;;;;9.10;6.05;;;;;;;23.40;60.53;101603.44;4951916;28;114643;-72
2021/09/11 09:16:34;;;;;;;8.80;6.20;;;;;;;23.45;60.68;101602.03;4952897;28;114019;-71
2021/09/11 09:19:16;;;;;;;9.88;6.30;;;;;;;23.54;60.53;101611.16;4951187;28;123907;-71
2021/09/11 09:21:45;;;;;;;7.82;5.50;;;;;;;23.59;60.18;101613.47;4951312;28;123567;-72
2021/09/11 09:24:26;;;;;;;11.40;5.70;;;;;;;23.60;59.97;101617.88;4946960;28;115804;-73
2021/09/11 09:26:59;;;;;;;9.98;5.88;;;;;;;23.60;59.78;101615.19;4944623;28;114419;-73
2021/09/11 09:29:27;;;;;;;7.72;5.80;;;;;;;23.61;59.87;101619.59;4946974;28;123609;-72
2021/09/11 09:31:56;;;;;;;10.18;5.85;;;;;;;23.60;59.65;101615.19;4949937;28;124464;-71
2021/09/11 09:34:32;;;;;;;9.65;5.90;;;;;;;23.59;59.39;101618.88;4953592;28;114013;-73
2021/09/11 09:37:02;;;;;;;9.63;6.28;;;;;;;23.60;59.59;101626.00;4939601;28;114074;-71
2021/09/11 09:39:38;;;;;;;10.00;6.28;;;;;;;23.61;59.85;101622.31;4970764;28;123671;-71
2021/09/11 09:42:07;;;;;;;8.93;6.28;;;;;;;23.64;59.80;101627.44;4950328;28;124089;-71
2021/09/11 09:44:46;;;;;;;10.73;7.18;;;;;;;23.65;59.58;101623.75;4953147;28;113607;-71
2021/09/11 09:47:19;;;;;;;10.25;6.88;;;;;;;23.65;59.51;101618.34;4949019;28;113925;-71
2021/09/11 09:50:04;;;;;;;10.48;6.75;;;;;;;23.64;59.71;101625.59;4954446;28;124741;-71
2021/09/11 09:52:33;;;;;;;12.35;6.78;;;;;;;23.62;59.28;101624.88;4966995;28;123905;-71
2021/09/11 09:55:00;;;;;;;10.45;6.78;;;;;;;23.57;59.25;101629.00;4951826;28;113333;-71
2021/09/11 09:57:28;;;;;;;13.52;6.57;;;;;;;23.50;59.09;101615.97;4948173;28;114294;-71
2021/09/11 09:59:57;;;;;;;8.80;6.45;;;;;;;23.45;59.09;101612.84;4946675;28;124336;-71
2021/09/11 10:02:24;;;;;;;10.75;6.38;;;;;;;23.42;59.15;101618.50;4945955;28;123910;-70
2021/09/11 10:04:54;;;;;;;9.32;5.88;;;;;;;23.40;59.36;101619.66;4947855;28;114393;-71
2021/09/11 10:07:23;;;;;;;9.43;5.93;;;;;;;23.36;59.35;101619.06;4964937;28;113829;-71
2021/09/11 10:09:51;;;;;;;9.57;6.05;;;;;;;23.32;59.22;101623.03;4942242;28;123869;-71
2021/09/11 10:12:41;;;;;;;9.10;5.78;;;;;;;23.26;59.46;101637.03;4951590;28;124043;-70
2021/09/11 10:15:24;;;;;;;10.93;5.95;;;;;;;23.22;59.51;101627.50;4945983;28;115513;-71
2021/09/11 10:17:52;;;;;;;9.48;6.35;;;;;;;23.21;59.53;101625.78;4944977;28;114814;-71
2021/09/11 10:20:20;;;;;;;10.30;6.80;;;;;;;23.19;59.46;101622.34;4952004;28;124940;-71
2021/09/11 10:23:07;;;;;;;8.52;5.97;;;;;;;23.15;59.64;101629.00;4961915;22;124242;-66
2021/09/11 10:25:43;;;;;;;8.80;5.80;;;;;;;23.09;59.48;101615.06;4960470;28;113461;-65
2021/09/11 10:28:26;;;;;;;9.77;6.45;;;;;;;23.08;59.84;101615.19;4950489;28;114031;-66
2021/09/11 10:31:08;;;;;;;10.95;7.28;;;;;;;23.10;59.98;101603.25;4950814;28;123749;-64
2021/09/11 10:33:46;;;;;;;12.15;7.32;;;;;;;23.15;60.13;101599.28;4950810;28;124187;-65
2021/09/11 10:36:49;;;;;;;11.15;7.07;;;;;;;23.20;60.01;101602.44;4967715;28;114452;-65
2021/09/11 10:39:18;;;;;;;12.48;7.32;;;;;;;23.27;59.99;101603.63;4919938;28;114140;-65
2021/09/11 10:42:04;;;;;;;12.30;7.78;;;;;;;23.35;60.11;101600.25;4941446;28;124300;-65
2021/09/11 10:44:31;;;;;;;10.95;7.30;;;;;;;23.42;60.12;101596.88;4947295;28;124804;-65
2021/09/11 10:46:58;;;;;;;10.27;7.00;;;;;;;23.50;59.91;101599.75;4951180;28;116331;-65
2021/09/11 10:49:38;;;;;;;10.25;7.07;;;;;;;23.61;60.10;101606.09;4947226;28;114035;-65
2021/09/11 10:52:09;;;;;;;10.23;6.88;;;;;;;23.69;59.98;101608.94;4948784;28;124061;-65
2021/09/11 10:54:40;;;;;;;9.68;7.05;;;;;;;23.77;59.76;101598.31;4963860;28;123915;-65
2021/09/11 10:57:16;;;;;;;12.70;7.20;;;;;;;23.83;59.64;101600.50;4949600;28;114046;-65
2021/09/11 10:59:50;;;;;;;11.50;8.32;;;;;;;23.89;59.12;101599.94;4947992;28;114022;-65
2021/09/11 11:02:38;;;;;;;15.30;8.93;;;;;;;23.92;59.02;101603.38;4949790;28;124154;-65
2021/09/11 11:05:11;;;;;;;13.55;8.30;;;;;;;23.95;59.22;101597.69;4954869;28;123346;-65
2021/09/11 11:07:46;;;;;;;11.48;8.27;;;;;;;24.00;59.09;101600.84;4949537;28;114357;-65
2021/09/11 11:10:21;;;;;;;12.50;8.38;;;;;;;24.07;59.05;101596.56;4937597;28;113746;-65
2021/09/11 11:12:50;;;;;;;13.15;8.60;;;;;;;24.13;58.97;101601.44;4949211;28;124152;-66
2021/09/11 11:15:25;;;;;;;14.60;8.40;;;;;;;24.19;59.01;101606.28;4935301;28;122911;-68
2021/09/11 11:17:53;;;;;;;13.45;8.20;;;;;;;24.26;58.74;101602.03;4930914;28;114128;-69
2021/09/11 11:20:27;;;;;;;9.60;7.18;;;;;;;24.27;58.43;101595.63;4945544;28;114203;-69